createdAt,value
2023-05-19T00:00:55.273Z,93056.00
2023-05-19T00:01:55.476Z,93060.00
2023-05-19T00:02:55.761Z,93058.00
2023-05-19T00:03:55.777Z,93062.00
2023-05-19T00:04:56.078Z,93060.00
2023-05-19T00:05:56.173Z,93062.00
2023-05-19T00:06:56.410Z,93060.00
2023-05-19T00:07:56.502Z,93062.00
2023-05-19T00:08:56.723Z,93064.00
2023-05-19T00:09:56.898Z,93064.00
2023-05-19T00:10:57.076Z,93060.00
2023-05-19T00:11:57.256Z,93060.00
2023-05-19T00:12:58.167Z,93058.00
2023-05-19T00:13:57.477Z,93058.00
2023-05-19T00:14:57.501Z,93058.00
2023-05-19T00:15:57.651Z,93056.00
2023-05-19T00:16:57.557Z,93054.00
2023-05-19T00:17:57.543Z,93056.00
2023-05-19T00:18:57.558Z,93052.00
2023-05-19T00:19:57.573Z,93054.00
2023-05-19T00:20:57.594Z,93054.00
2023-05-19T00:21:57.617Z,93054.00
2023-05-19T00:22:57.632Z,93054.00
2023-05-19T00:23:57.653Z,93054.00
2023-05-19T00:24:57.781Z,93052.00
2023-05-19T00:25:57.749Z,93056.00
2023-05-19T00:26:57.842Z,93056.00
2023-05-19T00:27:57.839Z,93054.00
2023-05-19T00:28:57.805Z,93058.00
2023-05-19T00:29:57.800Z,93056.00
2023-05-19T00:30:57.821Z,93054.00
2023-05-19T00:31:57.863Z,93056.00
2023-05-19T00:32:57.895Z,93054.00
2023-05-19T00:33:57.902Z,93056.00
2023-05-19T00:34:57.932Z,93054.00
2023-05-19T00:35:57.966Z,93056.00
2023-05-19T00:36:58.015Z,93052.00
2023-05-19T00:37:58.072Z,93050.00
2023-05-19T00:38:58.114Z,93052.00
2023-05-19T00:39:58.182Z,93052.00
2023-05-19T00:40:58.351Z,93054.00
2023-05-19T00:41:58.626Z,93054.00
2023-05-19T00:42:58.718Z,93054.00
2023-05-19T00:43:58.702Z,93056.00
2023-05-19T00:44:58.902Z,93058.00
2023-05-19T00:45:59.156Z,93048.00
2023-05-19T00:46:59.493Z,93048.00
2023-05-19T00:47:59.329Z,93048.00
2023-05-19T00:48:59.208Z,93048.00
2023-05-19T00:49:59.203Z,93046.00
2023-05-19T00:50:59.215Z,93046.00
2023-05-19T00:51:59.190Z,93050.00
2023-05-19T00:52:59.181Z,93050.00
2023-05-19T00:53:59.186Z,93052.00
2023-05-19T00:54:59.168Z,93050.00
2023-05-19T00:55:59.208Z,93046.00
2023-05-19T00:56:59.181Z,93046.00
2023-05-19T00:57:59.260Z,93044.00
2023-05-19T00:58:59.365Z,93046.00
2023-05-19T00:59:59.263Z,93044.00
2023-05-19T01:00:59.310Z,93046.00
2023-05-19T01:01:59.223Z,93046.00
2023-05-19T01:02:59.374Z,93048.00
2023-05-19T01:03:59.550Z,93046.00
2023-05-19T01:04:59.234Z,93046.00
2023-05-19T01:05:59.230Z,93042.00
2023-05-19T01:06:59.243Z,93042.00
2023-05-19T01:07:59.204Z,93042.00
2023-05-19T01:08:59.223Z,93044.00
2023-05-19T01:09:59.248Z,93044.00
2023-05-19T01:10:59.185Z,93042.00
2023-05-19T01:11:59.169Z,93046.00
2023-05-19T01:12:59.151Z,93044.00
2023-05-19T01:13:59.149Z,93046.00
2023-05-19T01:14:59.125Z,93044.00
2023-05-19T01:15:59.149Z,93042.00
2023-05-19T01:16:59.134Z,93042.00
2023-05-19T01:17:59.114Z,93038.00
2023-05-19T01:18:59.173Z,93038.00
2023-05-19T01:19:59.084Z,93040.00
2023-05-19T01:20:59.096Z,93034.00
2023-05-19T01:21:59.092Z,93036.00
2023-05-19T01:22:59.040Z,93036.00
2023-05-19T01:23:59.076Z,93038.00
2023-05-19T01:24:59.019Z,93038.00
2023-05-19T01:25:58.980Z,93042.00
2023-05-19T01:26:59.002Z,93040.00
2023-05-19T01:27:59.025Z,93044.00
2023-05-19T01:28:59.068Z,93044.00
2023-05-19T01:29:59.103Z,93042.00
2023-05-19T01:30:59.177Z,93044.00
2023-05-19T01:31:59.250Z,93040.00
2023-05-19T01:32:59.300Z,93044.00
2023-05-19T01:33:59.317Z,93042.00
2023-05-19T01:34:59.337Z,93044.00
2023-05-19T01:35:59.376Z,93044.00
2023-05-19T01:36:59.447Z,93044.00
2023-05-19T01:37:59.516Z,93044.00
2023-05-19T01:38:59.552Z,93042.00
2023-05-19T01:39:59.643Z,93042.00
2023-05-19T01:40:59.665Z,93044.00
2023-05-19T01:41:59.724Z,93040.00
2023-05-19T01:42:59.785Z,93044.00
2023-05-19T01:43:59.856Z,93042.00
2023-05-19T01:44:59.901Z,93042.00
2023-05-19T01:46:00.032Z,93040.00
2023-05-19T01:47:00.060Z,93040.00
2023-05-19T01:48:00.178Z,93042.00
2023-05-19T01:49:00.120Z,93040.00
2023-05-19T01:50:00.202Z,93040.00
2023-05-19T01:51:00.374Z,93038.00
2023-05-19T01:52:00.536Z,93038.00
2023-05-19T01:53:00.709Z,93040.00
2023-05-19T01:54:00.918Z,93040.00
2023-05-19T01:55:01.097Z,93038.00
2023-05-19T01:56:01.232Z,93038.00
2023-05-19T01:57:01.472Z,93036.00
2023-05-19T01:58:01.571Z,93038.00
2023-05-19T01:59:01.739Z,93040.00
2023-05-19T02:00:01.907Z,93040.00
2023-05-19T02:01:02.099Z,93038.00
2023-05-19T02:02:02.324Z,93042.00
2023-05-19T02:03:02.570Z,93044.00
2023-05-19T02:04:02.793Z,93042.00
2023-05-19T02:05:02.928Z,93044.00
2023-05-19T02:06:03.089Z,93044.00
2023-05-19T02:07:03.249Z,93044.00
2023-05-19T02:08:03.481Z,93046.00
2023-05-19T02:09:03.639Z,93046.00
2023-05-19T02:10:03.822Z,93046.00
2023-05-19T02:11:03.925Z,93046.00
2023-05-19T02:12:04.122Z,93048.00
2023-05-19T02:13:04.338Z,93048.00
2023-05-19T02:14:04.471Z,93050.00
2023-05-19T02:15:04.778Z,93050.00
2023-05-19T02:16:04.870Z,93050.00
2023-05-19T02:17:05.043Z,93048.00
2023-05-19T02:18:05.295Z,93048.00
2023-05-19T02:19:05.332Z,93046.00
2023-05-19T02:20:05.643Z,93048.00
2023-05-19T02:21:05.747Z,93046.00
2023-05-19T02:22:06.054Z,93046.00
2023-05-19T02:23:06.124Z,93046.00
2023-05-19T02:24:06.353Z,93048.00
2023-05-19T02:25:06.473Z,93046.00
2023-05-19T02:26:06.644Z,93048.00
2023-05-19T02:27:06.800Z,93048.00
2023-05-19T02:28:06.968Z,93046.00
2023-05-19T02:29:07.162Z,93048.00
2023-05-19T02:30:07.368Z,93048.00
2023-05-19T02:31:07.482Z,93048.00
2023-05-19T02:32:07.756Z,93044.00
2023-05-19T02:33:07.834Z,93046.00
2023-05-19T02:34:08.028Z,93044.00
2023-05-19T02:35:08.125Z,93046.00
2023-05-19T02:36:08.295Z,93044.00
2023-05-19T02:37:08.406Z,93044.00
2023-05-19T02:38:08.585Z,93042.00
2023-05-19T02:39:08.769Z,93042.00
2023-05-19T02:40:08.954Z,93042.00
2023-05-19T02:41:09.132Z,93040.00
2023-05-19T02:42:09.346Z,93040.00
2023-05-19T02:43:09.520Z,93038.00
2023-05-19T02:44:09.710Z,93038.00
2023-05-19T02:45:09.915Z,93036.00
2023-05-19T02:46:10.142Z,93036.00
2023-05-19T02:47:10.282Z,93034.00
2023-05-19T02:48:10.521Z,93030.00
2023-05-19T02:49:10.781Z,93028.00
2023-05-19T02:50:10.864Z,93027.00
2023-05-19T02:51:11.039Z,93025.00
2023-05-19T02:52:11.294Z,93023.00
2023-05-19T02:53:11.399Z,93023.00
2023-05-19T02:54:11.586Z,93025.00
2023-05-19T02:55:11.726Z,93023.00
2023-05-19T02:56:11.920Z,93027.00
2023-05-19T02:57:12.095Z,93025.00
2023-05-19T02:58:12.226Z,93021.00
2023-05-19T02:59:12.411Z,93023.00
2023-05-19T03:00:12.518Z,93019.00
2023-05-19T03:01:12.684Z,93021.00
2023-05-19T03:02:12.898Z,93017.00
2023-05-19T03:03:13.057Z,93019.00
2023-05-19T03:04:13.139Z,93023.00
2023-05-19T03:05:13.304Z,93019.00
2023-05-19T03:06:13.498Z,93019.00
2023-05-19T03:07:13.687Z,93017.00
2023-05-19T03:08:13.799Z,93015.00
2023-05-19T03:09:14.007Z,93013.00
2023-05-19T03:10:14.151Z,93013.00
2023-05-19T03:11:14.343Z,93011.00
2023-05-19T03:12:14.479Z,93011.00
2023-05-19T03:13:14.645Z,93011.00
2023-05-19T03:14:14.847Z,93011.00
2023-05-19T03:15:14.959Z,93009.00
2023-05-19T03:16:15.126Z,93009.00
2023-05-19T03:17:15.282Z,93007.00
2023-05-19T03:18:15.473Z,93011.00
2023-05-19T03:19:15.596Z,93009.00
2023-05-19T03:20:15.745Z,93009.00
2023-05-19T03:21:15.913Z,93011.00
2023-05-19T03:22:16.069Z,93007.00
2023-05-19T03:23:16.251Z,93001.00
2023-05-19T03:24:16.403Z,93003.00
2023-05-19T03:25:16.558Z,92999.00
2023-05-19T03:26:16.691Z,92997.00
2023-05-19T03:27:16.842Z,93001.00
2023-05-19T03:28:17.013Z,92999.00
2023-05-19T03:29:17.129Z,93003.00
2023-05-19T03:30:17.281Z,93003.00
2023-05-19T03:31:17.477Z,93003.00
2023-05-19T03:32:17.668Z,93001.00
2023-05-19T03:33:17.923Z,93003.00
2023-05-19T03:34:17.894Z,93005.00
2023-05-19T03:35:18.042Z,93007.00
2023-05-19T03:36:18.220Z,93005.00
2023-05-19T03:37:18.385Z,93005.00
2023-05-19T03:38:18.563Z,93003.00
2023-05-19T03:39:18.719Z,93007.00
2023-05-19T03:40:18.899Z,93005.00
2023-05-19T03:41:19.046Z,93005.00
2023-05-19T03:42:19.200Z,93005.00
2023-05-19T03:43:19.370Z,93003.00
2023-05-19T03:44:19.538Z,93001.00
2023-05-19T03:45:19.712Z,93005.00
2023-05-19T03:46:19.976Z,93005.00
2023-05-19T03:47:20.049Z,93005.00
2023-05-19T03:48:21.397Z,93007.00
2023-05-19T03:49:20.312Z,93009.00
2023-05-19T03:50:20.339Z,93007.00
2023-05-19T03:51:20.433Z,93009.00
2023-05-19T03:52:20.426Z,93009.00
2023-05-19T03:53:20.485Z,93009.00
2023-05-19T03:54:20.557Z,93009.00
2023-05-19T03:55:20.571Z,93013.00
2023-05-19T03:56:20.619Z,93015.00
2023-05-19T03:57:20.692Z,93017.00
2023-05-19T03:58:20.735Z,93017.00
2023-05-19T03:59:20.785Z,93019.00
2023-05-19T04:00:20.838Z,93019.00
2023-05-19T04:01:20.902Z,93021.00
2023-05-19T04:02:20.965Z,93021.00
2023-05-19T04:03:21.254Z,93019.00
2023-05-19T04:04:21.097Z,93021.00
2023-05-19T04:05:21.116Z,93019.00
2023-05-19T04:06:21.189Z,93019.00
2023-05-19T04:07:21.217Z,93017.00
2023-05-19T04:08:21.387Z,93015.00
2023-05-19T04:09:21.548Z,93019.00
2023-05-19T04:10:21.854Z,93019.00
2023-05-19T04:11:21.915Z,93021.00
2023-05-19T04:12:22.144Z,93023.00
2023-05-19T04:13:22.230Z,93019.00
2023-05-19T04:14:22.367Z,93021.00
2023-05-19T04:15:22.544Z,93019.00
2023-05-19T04:16:22.814Z,93021.00
2023-05-19T04:17:22.895Z,93021.00
2023-05-19T04:18:23.066Z,93025.00
2023-05-19T04:19:23.351Z,93025.00
2023-05-19T04:20:23.387Z,93025.00
2023-05-19T04:21:23.578Z,93025.00
2023-05-19T04:22:23.762Z,93025.00
2023-05-19T04:23:23.957Z,93025.00
2023-05-19T04:24:24.154Z,93027.00
2023-05-19T04:25:24.357Z,93028.00
2023-05-19T04:26:24.521Z,93028.00
2023-05-19T04:27:24.715Z,93028.00
2023-05-19T04:28:24.880Z,93030.00
2023-05-19T04:29:25.034Z,93030.00
2023-05-19T04:30:25.229Z,93028.00
2023-05-19T04:31:25.411Z,93030.00
2023-05-19T04:32:25.683Z,93028.00
2023-05-19T04:33:25.744Z,93032.00
2023-05-19T04:34:25.902Z,93032.00
2023-05-19T04:35:26.078Z,93034.00
2023-05-19T04:36:26.244Z,93034.00
2023-05-19T04:37:26.434Z,93034.00
2023-05-19T04:38:26.640Z,93032.00
2023-05-19T04:39:26.835Z,93032.00
2023-05-19T04:40:27.017Z,93030.00
2023-05-19T04:41:27.160Z,93030.00
2023-05-19T04:42:27.316Z,93028.00
2023-05-19T04:43:27.479Z,93030.00
2023-05-19T04:44:27.651Z,93030.00
2023-05-19T04:45:27.823Z,93028.00
2023-05-19T04:46:27.989Z,93028.00
2023-05-19T04:47:28.342Z,93027.00
2023-05-19T04:48:28.257Z,93025.00
2023-05-19T04:49:28.402Z,93028.00
2023-05-19T04:50:28.602Z,93028.00
2023-05-19T04:51:30.482Z,93028.00
2023-05-19T04:52:28.738Z,93028.00
2023-05-19T04:53:28.771Z,93032.00
2023-05-19T04:54:28.835Z,93034.00
2023-05-19T04:55:28.949Z,93034.00
2023-05-19T04:56:28.954Z,93038.00
2023-05-19T04:57:28.932Z,93038.00
2023-05-19T04:58:28.970Z,93036.00
2023-05-19T04:59:29.018Z,93036.00
2023-05-19T05:00:29.064Z,93036.00
2023-05-19T05:01:29.118Z,93036.00
2023-05-19T05:02:29.343Z,93034.00
2023-05-19T05:03:29.355Z,93034.00
2023-05-19T05:04:29.247Z,93038.00
2023-05-19T05:05:29.323Z,93040.00
2023-05-19T05:06:29.340Z,93042.00
2023-05-19T05:07:31.678Z,93042.00
2023-05-19T05:08:29.334Z,93038.00
2023-05-19T05:09:29.344Z,93040.00
2023-05-19T05:10:29.340Z,93038.00
2023-05-19T05:11:29.325Z,93040.00
2023-05-19T05:12:29.301Z,93042.00
2023-05-19T05:13:29.324Z,93038.00
2023-05-19T05:14:29.316Z,93040.00
2023-05-19T05:15:29.285Z,93040.00
2023-05-19T05:16:29.368Z,93040.00
2023-05-19T05:17:29.353Z,93044.00
2023-05-19T05:18:29.320Z,93046.00
2023-05-19T05:19:29.360Z,93046.00
2023-05-19T05:20:29.269Z,93044.00
2023-05-19T05:21:29.256Z,93044.00
2023-05-19T05:22:29.292Z,93046.00
2023-05-19T05:23:29.298Z,93042.00
2023-05-19T05:24:29.294Z,93040.00
2023-05-19T05:25:29.283Z,93044.00
2023-05-19T05:26:29.287Z,93040.00
2023-05-19T05:27:29.372Z,93040.00
2023-05-19T05:28:29.343Z,93038.00
2023-05-19T05:29:29.276Z,93038.00
2023-05-19T05:30:29.310Z,93042.00
2023-05-19T05:31:29.272Z,93040.00
2023-05-19T05:32:29.336Z,93040.00
2023-05-19T05:33:29.318Z,93040.00
2023-05-19T05:34:29.250Z,93040.00
2023-05-19T05:35:29.289Z,93040.00
2023-05-19T05:36:29.262Z,93038.00
2023-05-19T05:37:29.302Z,93038.00
2023-05-19T05:38:29.270Z,93038.00
2023-05-19T05:39:29.278Z,93040.00
2023-05-19T05:40:29.299Z,93040.00
2023-05-19T05:41:29.343Z,93040.00
2023-05-19T05:42:29.868Z,93042.00
2023-05-19T05:43:29.290Z,93040.00
2023-05-19T05:44:29.268Z,93042.00
2023-05-19T05:45:29.265Z,93038.00
2023-05-19T05:46:29.322Z,93040.00
2023-05-19T05:47:29.250Z,93040.00
2023-05-19T05:48:29.221Z,93042.00
2023-05-19T05:49:29.228Z,93040.00
2023-05-19T05:50:29.223Z,93040.00
2023-05-19T05:51:29.230Z,93038.00
2023-05-19T05:52:29.224Z,93040.00
2023-05-19T05:53:29.235Z,93040.00
2023-05-19T05:54:29.313Z,93040.00
2023-05-19T05:55:29.337Z,93040.00
2023-05-19T05:56:29.402Z,93040.00
2023-05-19T05:57:29.560Z,93042.00
2023-05-19T05:58:29.721Z,93040.00
2023-05-19T05:59:29.874Z,93038.00
2023-05-19T06:00:30.165Z,93036.00
2023-05-19T06:01:30.219Z,93036.00
2023-05-19T06:02:30.447Z,93038.00
2023-05-19T06:03:30.553Z,93038.00
2023-05-19T06:04:30.663Z,93036.00
2023-05-19T06:05:30.905Z,93038.00
2023-05-19T06:06:31.036Z,93038.00
2023-05-19T06:07:31.158Z,93036.00
2023-05-19T06:08:31.437Z,93038.00
2023-05-19T06:09:31.534Z,93034.00
2023-05-19T06:10:32.081Z,93036.00
2023-05-19T06:11:31.834Z,93032.00
2023-05-19T06:12:31.840Z,93032.00
2023-05-19T06:13:31.849Z,93034.00
2023-05-19T06:14:31.869Z,93036.00
2023-05-19T06:15:31.942Z,93034.00
2023-05-19T06:16:32.016Z,93032.00
2023-05-19T06:17:31.979Z,93032.00
2023-05-19T06:18:31.957Z,93030.00
2023-05-19T06:19:32.002Z,93030.00
2023-05-19T06:20:32.352Z,93032.00
2023-05-19T06:21:32.105Z,93030.00
2023-05-19T06:22:32.152Z,93030.00
2023-05-19T06:23:32.194Z,93028.00
2023-05-19T06:24:32.212Z,93034.00
2023-05-19T06:25:32.589Z,93032.00
2023-05-19T06:26:32.278Z,93032.00
2023-05-19T06:27:34.549Z,93030.00
2023-05-19T06:28:32.369Z,93030.00
2023-05-19T06:29:32.393Z,93034.00
2023-05-19T06:30:32.566Z,93034.00
2023-05-19T06:31:32.528Z,93036.00
2023-05-19T06:32:32.570Z,93034.00
2023-05-19T06:33:33.264Z,93038.00
2023-05-19T06:34:32.543Z,93034.00
2023-05-19T06:35:32.585Z,93034.00
2023-05-19T06:36:32.641Z,93032.00
2023-05-19T06:37:32.678Z,93030.00
2023-05-19T06:38:32.641Z,93032.00
2023-05-19T06:39:32.659Z,93032.00
2023-05-19T06:40:32.853Z,93030.00
2023-05-19T06:41:32.696Z,93034.00
2023-05-19T06:42:32.715Z,93030.00
2023-05-19T06:43:32.708Z,93032.00
2023-05-19T06:44:32.743Z,93028.00
2023-05-19T06:45:32.779Z,93028.00
2023-05-19T06:46:32.860Z,93028.00
2023-05-19T06:47:32.937Z,93028.00
2023-05-19T06:48:32.898Z,93025.00
2023-05-19T06:49:33.054Z,93025.00
2023-05-19T06:50:33.308Z,93025.00
2023-05-19T06:51:33.333Z,93025.00
2023-05-19T06:52:33.448Z,93030.00
2023-05-19T06:53:33.610Z,93027.00
2023-05-19T06:54:33.752Z,93027.00
2023-05-19T06:55:37.123Z,93028.00
2023-05-19T06:56:34.847Z,93023.00
2023-05-19T06:57:33.840Z,93023.00
2023-05-19T06:58:33.813Z,93023.00
2023-05-19T06:59:33.894Z,93025.00
2023-05-19T07:00:33.972Z,93025.00
2023-05-19T07:01:33.858Z,93025.00
2023-05-19T07:02:33.852Z,93025.00
2023-05-19T07:03:33.931Z,93023.00
2023-05-19T07:04:33.769Z,93025.00
2023-05-19T07:05:33.754Z,93025.00
2023-05-19T07:06:33.713Z,93025.00
2023-05-19T07:07:33.707Z,93025.00
2023-05-19T07:08:33.694Z,93023.00
2023-05-19T07:09:33.682Z,93025.00
2023-05-19T07:10:33.862Z,93023.00
2023-05-19T07:11:33.672Z,93025.00
2023-05-19T07:12:33.644Z,93019.00
2023-05-19T07:13:33.641Z,93017.00
2023-05-19T07:14:33.621Z,93017.00
2023-05-19T07:15:33.630Z,93015.00
2023-05-19T07:16:33.651Z,93015.00
2023-05-19T07:17:33.658Z,93013.00
2023-05-19T07:18:33.614Z,93013.00
2023-05-19T07:19:33.605Z,93007.00
2023-05-19T07:20:33.785Z,93009.00
2023-05-19T07:21:33.660Z,93005.00
2023-05-19T07:22:33.601Z,93003.00
2023-05-19T07:23:33.601Z,93003.00
2023-05-19T07:24:33.580Z,93001.00
2023-05-19T07:25:33.562Z,93001.00
2023-05-19T07:26:33.571Z,92999.00
2023-05-19T07:27:33.564Z,92999.00
2023-05-19T07:28:33.543Z,92995.00
2023-05-19T07:29:33.616Z,92997.00
2023-05-19T07:30:33.763Z,92993.00
2023-05-19T07:31:33.607Z,92993.00
2023-05-19T07:32:33.730Z,92991.00
2023-05-19T07:33:33.576Z,92991.00
2023-05-19T07:34:33.581Z,92985.00
2023-05-19T07:35:33.586Z,92983.00
2023-05-19T07:36:33.619Z,92983.00
2023-05-19T07:37:33.683Z,92983.00
2023-05-19T07:38:33.761Z,92983.00
2023-05-19T07:39:33.793Z,92979.00
2023-05-19T07:40:33.919Z,92979.00
2023-05-19T07:41:34.453Z,92979.00
2023-05-19T07:42:33.917Z,92979.00
2023-05-19T07:43:34.001Z,92981.00
2023-05-19T07:44:33.991Z,92979.00
2023-05-19T07:45:34.076Z,92979.00
2023-05-19T07:46:34.077Z,92975.00
2023-05-19T07:47:34.009Z,92973.00
2023-05-19T07:48:34.012Z,92973.00
2023-05-19T07:49:34.028Z,92972.00
2023-05-19T07:50:34.269Z,92970.00
2023-05-19T07:51:34.101Z,92970.00
2023-05-19T07:52:34.112Z,92966.00
2023-05-19T07:53:34.157Z,92966.00
2023-05-19T07:54:34.184Z,92966.00
2023-05-19T07:55:34.230Z,92962.00
2023-05-19T07:56:34.253Z,92962.00
2023-05-19T07:57:34.268Z,92964.00
2023-05-19T07:58:34.292Z,92962.00
2023-05-19T07:59:34.426Z,92960.00
2023-05-19T08:00:34.526Z,92958.00
2023-05-19T08:01:34.337Z,92956.00
2023-05-19T08:02:34.371Z,92954.00
2023-05-19T08:03:34.369Z,92952.00
2023-05-19T08:04:34.260Z,92952.00
2023-05-19T08:05:34.301Z,92952.00
2023-05-19T08:06:34.228Z,92948.00
2023-05-19T08:07:34.212Z,92948.00
2023-05-19T08:08:34.212Z,92942.00
2023-05-19T08:09:34.281Z,92942.00
2023-05-19T08:10:34.674Z,92938.00
2023-05-19T08:11:34.343Z,92938.00
2023-05-19T08:12:34.302Z,92934.00
2023-05-19T08:13:34.326Z,92934.00
2023-05-19T08:14:34.317Z,92932.00
2023-05-19T08:15:34.400Z,92930.00
2023-05-19T08:16:34.352Z,92930.00
2023-05-19T08:17:34.372Z,92930.00
2023-05-19T08:18:34.359Z,92928.00
2023-05-19T08:19:34.405Z,92925.00
2023-05-19T08:20:34.613Z,92921.00
2023-05-19T08:21:34.401Z,92921.00
2023-05-19T08:22:34.404Z,92921.00
2023-05-19T08:23:34.431Z,92917.00
2023-05-19T08:24:34.444Z,92919.00
2023-05-19T08:25:34.412Z,92917.00
2023-05-19T08:26:36.915Z,92915.00
2023-05-19T08:27:34.345Z,92911.00
2023-05-19T08:28:34.294Z,92911.00
2023-05-19T08:29:34.264Z,92909.00
2023-05-19T08:30:34.458Z,92903.00
2023-05-19T08:31:34.242Z,92903.00
2023-05-19T08:32:34.140Z,92903.00
2023-05-19T08:33:34.083Z,92899.00
2023-05-19T08:34:34.046Z,92899.00
2023-05-19T08:35:34.041Z,92895.00
2023-05-19T08:36:34.324Z,92895.00
2023-05-19T08:37:34.249Z,92893.00
2023-05-19T08:38:33.866Z,92891.00
2023-05-19T08:39:33.825Z,92891.00
2023-05-19T08:40:34.112Z,92889.00
2023-05-19T08:41:33.738Z,92887.00
2023-05-19T08:42:33.701Z,92883.00
2023-05-19T08:43:33.694Z,92883.00
2023-05-19T08:44:33.599Z,92883.00
2023-05-19T08:45:33.732Z,92883.00
2023-05-19T08:46:33.585Z,92879.00
2023-05-19T08:47:33.509Z,92879.00
2023-05-19T08:48:33.367Z,92874.00
2023-05-19T08:49:33.309Z,92874.00
2023-05-19T08:50:33.501Z,92868.00
2023-05-19T08:51:33.186Z,92868.00
2023-05-19T08:52:33.128Z,92866.00
2023-05-19T08:53:34.644Z,92862.00
2023-05-19T08:54:33.010Z,92862.00
2023-05-19T08:55:33.183Z,92862.00
2023-05-19T08:56:32.905Z,92860.00
2023-05-19T08:57:32.890Z,92854.00
2023-05-19T08:58:32.832Z,92852.00
2023-05-19T08:59:32.805Z,92854.00
2023-05-19T09:00:32.923Z,92848.00
2023-05-19T09:01:32.783Z,92850.00
2023-05-19T09:02:32.780Z,92846.00
2023-05-19T09:03:32.781Z,92846.00
2023-05-19T09:04:32.730Z,92850.00
2023-05-19T09:05:32.768Z,92848.00
2023-05-19T09:06:32.535Z,92844.00
2023-05-19T09:07:32.477Z,92846.00
2023-05-19T09:08:32.417Z,92842.00
2023-05-19T09:09:32.365Z,92842.00
2023-05-19T09:10:32.319Z,92840.00
2023-05-19T09:11:32.823Z,92840.00
2023-05-19T09:12:32.225Z,92829.00
2023-05-19T09:13:32.218Z,92829.00
2023-05-19T09:14:32.209Z,92831.00
2023-05-19T09:15:32.347Z,92827.00
2023-05-19T09:16:32.222Z,92829.00
2023-05-19T09:17:32.176Z,92827.00
2023-05-19T09:18:32.164Z,92827.00
2023-05-19T09:19:32.296Z,92825.00
2023-05-19T09:20:32.130Z,92823.00
2023-05-19T09:21:32.145Z,92823.00
2023-05-19T09:22:32.146Z,92819.00
2023-05-19T09:23:32.255Z,92813.00
2023-05-19T09:24:32.177Z,92815.00
2023-05-19T09:25:32.318Z,92811.00
2023-05-19T09:26:32.194Z,92811.00
2023-05-19T09:27:32.170Z,92811.00
2023-05-19T09:28:32.159Z,92811.00
2023-05-19T09:29:32.200Z,92809.00
2023-05-19T09:30:32.139Z,92811.00
2023-05-19T09:31:32.131Z,92803.00
2023-05-19T09:32:32.115Z,92803.00
2023-05-19T09:33:32.050Z,92799.00
2023-05-19T09:34:32.045Z,92799.00
2023-05-19T09:35:32.315Z,92797.00
2023-05-19T09:36:32.333Z,92797.00
2023-05-19T09:37:32.413Z,92797.00
2023-05-19T09:38:32.542Z,92795.00
2023-05-19T09:39:32.702Z,92795.00
2023-05-19T09:40:32.793Z,92791.00
2023-05-19T09:41:32.915Z,92791.00
2023-05-19T09:42:33.127Z,92789.00
2023-05-19T09:43:32.928Z,92793.00
2023-05-19T09:44:33.206Z,92791.00
2023-05-19T09:45:33.470Z,92789.00
2023-05-19T09:46:33.274Z,92789.00
2023-05-19T09:47:33.153Z,92787.00
2023-05-19T09:48:33.044Z,92787.00
2023-05-19T09:49:33.127Z,92784.00
2023-05-19T09:50:32.912Z,92782.00
2023-05-19T09:51:32.860Z,92780.00
2023-05-19T09:52:32.745Z,92778.00
2023-05-19T09:53:32.738Z,92778.00
2023-05-19T09:54:32.712Z,92778.00
2023-05-19T09:55:32.867Z,92776.00
2023-05-19T09:56:32.445Z,92776.00
2023-05-19T09:57:32.325Z,92778.00
2023-05-19T09:58:32.239Z,92776.00
2023-05-19T09:59:33.775Z,92774.00
2023-05-19T10:00:32.170Z,92774.00
2023-05-19T10:01:32.025Z,92776.00
2023-05-19T10:02:31.943Z,92770.00
2023-05-19T10:03:31.817Z,92772.00
2023-05-19T10:04:31.789Z,92772.00
2023-05-19T10:05:31.802Z,92770.00
2023-05-19T10:06:31.558Z,92772.00
2023-05-19T10:07:31.490Z,92772.00
2023-05-19T10:08:31.394Z,92772.00
2023-05-19T10:09:31.306Z,92770.00
2023-05-19T10:10:31.273Z,92770.00
2023-05-19T10:11:31.142Z,92768.00
2023-05-19T10:12:31.052Z,92766.00
2023-05-19T10:13:31.069Z,92760.00
2023-05-19T10:14:30.870Z,92762.00
2023-05-19T10:15:30.984Z,92760.00
2023-05-19T10:16:30.743Z,92758.00
2023-05-19T10:17:30.651Z,92752.00
2023-05-19T10:18:30.606Z,92754.00
2023-05-19T10:19:30.507Z,92756.00
2023-05-19T10:20:30.897Z,92756.00
2023-05-19T10:21:30.394Z,92756.00
2023-05-19T10:22:30.343Z,92754.00
2023-05-19T10:23:30.320Z,92754.00
2023-05-19T10:24:30.287Z,92754.00
2023-05-19T10:25:30.205Z,92750.00
2023-05-19T10:26:30.145Z,92752.00
2023-05-19T10:27:30.074Z,92754.00
2023-05-19T10:28:29.995Z,92748.00
2023-05-19T10:29:29.931Z,92748.00
2023-05-19T10:30:29.862Z,92746.00
2023-05-19T10:31:29.896Z,92744.00
2023-05-19T10:32:29.981Z,92742.00
2023-05-19T10:33:29.835Z,92739.00
2023-05-19T10:34:29.960Z,92739.00
2023-05-19T10:35:31.095Z,92735.00
2023-05-19T10:36:30.048Z,92735.00
2023-05-19T10:37:30.008Z,92733.00
2023-05-19T10:38:29.954Z,92737.00
2023-05-19T10:39:29.843Z,92737.00
2023-05-19T10:40:29.849Z,92733.00
2023-05-19T10:41:29.746Z,92735.00
2023-05-19T10:42:29.711Z,92731.00
2023-05-19T10:43:29.701Z,92737.00
2023-05-19T10:44:29.618Z,92733.00
2023-05-19T10:45:29.594Z,92727.00
2023-05-19T10:46:29.546Z,92725.00
2023-05-19T10:47:29.638Z,92729.00
2023-05-19T10:48:29.747Z,92729.00
2023-05-19T10:49:29.872Z,92725.00
2023-05-19T10:50:30.039Z,92729.00
2023-05-19T10:51:30.173Z,92729.00
2023-05-19T10:52:30.358Z,92729.00
2023-05-19T10:53:30.483Z,92729.00
2023-05-19T10:54:30.620Z,92727.00
2023-05-19T10:55:30.951Z,92727.00
2023-05-19T10:56:30.919Z,92727.00
2023-05-19T10:57:31.076Z,92725.00
2023-05-19T10:58:31.157Z,92723.00
2023-05-19T10:59:31.322Z,92725.00
2023-05-19T11:00:31.419Z,92723.00
2023-05-19T11:01:31.588Z,92723.00
2023-05-19T11:02:31.713Z,92723.00
2023-05-19T11:03:31.870Z,92721.00
2023-05-19T11:04:31.977Z,92723.00
2023-05-19T11:05:32.267Z,92719.00
2023-05-19T11:06:32.208Z,92721.00
2023-05-19T11:07:32.362Z,92717.00
2023-05-19T11:08:32.519Z,92717.00
2023-05-19T11:09:40.071Z,92715.00
2023-05-19T11:10:33.564Z,92713.00
2023-05-19T11:11:33.309Z,92713.00
2023-05-19T11:12:32.372Z,92711.00
2023-05-19T11:13:32.293Z,92709.00
2023-05-19T11:14:32.201Z,92711.00
2023-05-19T11:15:32.355Z,92709.00
2023-05-19T11:16:32.008Z,92711.00
2023-05-19T11:17:33.134Z,92709.00
2023-05-19T11:18:31.764Z,92709.00
2023-05-19T11:19:31.741Z,92707.00
2023-05-19T11:20:31.653Z,92709.00
2023-05-19T11:21:31.757Z,92705.00
2023-05-19T11:22:31.586Z,92705.00
2023-05-19T11:23:33.417Z,92703.00
2023-05-19T11:24:31.569Z,92703.00
2023-05-19T11:25:31.622Z,92699.00
2023-05-19T11:26:31.373Z,92699.00
2023-05-19T11:27:31.358Z,92695.00
2023-05-19T11:28:31.141Z,92695.00
2023-05-19T11:29:31.934Z,92697.00
2023-05-19T11:30:30.936Z,92693.00
2023-05-19T11:31:30.849Z,92691.00
2023-05-19T11:32:30.913Z,92697.00
2023-05-19T11:33:30.689Z,92693.00
2023-05-19T11:34:30.590Z,92691.00
2023-05-19T11:35:30.692Z,92695.00
2023-05-19T11:36:30.386Z,92691.00
2023-05-19T11:37:30.276Z,92693.00
2023-05-19T11:38:30.406Z,92689.00
2023-05-19T11:39:30.059Z,92687.00
2023-05-19T11:40:29.959Z,92687.00
2023-05-19T11:41:29.823Z,92689.00
2023-05-19T11:42:29.736Z,92689.00
2023-05-19T11:43:29.693Z,92687.00
2023-05-19T11:44:29.815Z,92689.00
2023-05-19T11:45:29.947Z,92691.00